Time;durP1;ratioP1;P1;durP2;ratioP2;P2;SDS_P1;SDS_P2;PMS_P1;PMS_P2;Temp;Humidity;BMP_temperature;BMP_pressure;BME280_temperature;BME280_humidity;BME280_pressure;Samples;Min_cycle;Max_cycle;Signal;HPM_P1;HPM_P2
2022/04/03 00:01:17;;;;;;;0.40;0.40;;;-1.30;99.90;;;;;;5075189;28;20062;-77
2022/04/03 00:03:44;;;;;;;0.40;0.40;;;-1.40;99.90;;;;;;5107465;28;20098;-77
2022/04/03 00:06:10;;;;;;;0.30;0.30;;;-1.40;99.90;;;;;;5091405;28;20046;-77
2022/04/03 00:08:37;;;;;;;0.40;0.40;;;-1.00;99.90;;;;;;5107626;28;20121;-77
2022/04/03 00:11:04;;;;;;;0.40;0.40;;;-1.30;99.90;;;;;;5091078;28;20098;-77
2022/04/03 00:13:31;;;;;;;0.40;0.40;;;-1.20;99.90;;;;;;5108266;28;20032;-77
2022/04/03 00:15:58;;;;;;;0.40;0.40;;;-1.20;99.90;;;;;;5075002;28;20382;-77
2022/04/03 00:18:25;;;;;;;0.30;0.30;;;-1.10;99.90;;;;;;5074541;28;20047;-77
2022/04/03 00:20:52;;;;;;;0.40;0.40;;;-1.10;99.90;;;;;;5090606;28;20533;-76
2022/04/03 00:23:20;;;;;;;0.30;0.30;;;-1.10;99.90;;;;;;5090932;28;20048;-77
2022/04/03 00:25:47;;;;;;;0.30;0.30;;;-1.00;99.90;;;;;;5107647;28;20088;-77
2022/04/03 00:28:14;;;;;;;0.30;0.30;;;-1.10;99.90;;;;;;5058468;28;20432;-77
2022/04/03 00:30:42;;;;;;;0.30;0.30;;;-1.10;99.90;;;;;;5107209;28;20489;-77
2022/04/03 00:33:09;;;;;;;0.30;0.30;;;-1.20;99.90;;;;;;5107651;28;20078;-77
2022/04/03 00:35:36;;;;;;;0.30;0.30;;;-1.20;99.90;;;;;;5073986;28;20626;-77
2022/04/03 00:38:03;;;;;;;0.20;0.20;;;-1.20;99.90;;;;;;5091080;28;20126;-77
2022/04/03 00:40:30;;;;;;;0.30;0.30;;;-1.20;99.90;;;;;;5091083;28;20031;-77
2022/04/03 00:42:57;;;;;;;0.40;0.40;;;-1.20;99.90;;;;;;5092765;28;20408;-77
2022/04/03 00:45:24;;;;;;;0.40;0.40;;;-1.20;99.90;;;;;;5078299;28;20096;-77
2022/04/03 00:47:53;;;;;;;0.32;0.32;;;-0.50;99.90;;;;;;5077991;28;20043;-77
2022/04/03 00:50:21;;;;;;;0.40;0.40;;;-1.10;99.90;;;;;;5094734;28;20039;-77
2022/04/03 00:52:48;;;;;;;0.40;0.40;;;-1.00;99.90;;;;;;5094091;28;20040;-76
2022/04/03 00:55:15;;;;;;;0.30;0.30;;;-1.00;99.90;;;;;;5094398;28;20071;-77
2022/04/03 00:57:43;;;;;;;0.40;0.40;;;-0.90;99.90;;;;;;5094360;28;20105;-77
2022/04/03 01:00:12;;;;;;;0.30;0.30;;;-0.90;99.90;;;;;;5094285;28;20040;-77
2022/04/03 01:02:40;;;;;;;0.40;0.40;;;-0.90;99.90;;;;;;5111125;28;20131;-77
2022/04/03 01:05:08;;;;;;;0.40;0.40;;;-0.80;99.90;;;;;;5094535;28;20128;-77
2022/04/03 01:07:35;;;;;;;0.40;0.40;;;-0.90;99.90;;;;;;5111029;28;20040;-77
2022/04/03 01:10:02;;;;;;;0.38;0.38;;;-0.80;99.90;;;;;;5093907;28;20126;-77
2022/04/03 01:12:29;;;;;;;0.40;0.40;;;-0.80;99.90;;;;;;5110935;28;20038;-77
2022/04/03 01:14:56;;;;;;;0.40;0.40;;;-0.80;99.90;;;;;;5110728;28;20044;-77
2022/04/03 01:17:23;;;;;;;0.32;0.32;;;-0.80;99.90;;;;;;5093976;28;20040;-77
2022/04/03 01:19:50;;;;;;;0.32;0.32;;;-0.50;99.90;;;;;;5110343;28;20126;-77
2022/04/03 01:22:18;;;;;;;0.40;0.40;;;-0.80;99.90;;;;;;5077079;28;20129;-77
2022/04/03 01:24:45;;;;;;;0.40;0.40;;;-0.20;99.90;;;;;;5077008;28;20080;-76
2022/04/03 01:27:12;;;;;;;0.40;0.40;;;-0.90;99.90;;;;;;5077397;28;20519;-77
2022/04/03 01:29:38;;;;;;;0.30;0.30;;;-0.90;99.90;;;;;;5110251;28;20056;-77
2022/04/03 01:32:06;;;;;;;0.30;0.30;;;-1.00;99.90;;;;;;5110018;28;20039;-77
2022/04/03 01:34:32;;;;;;;0.30;0.30;;;-1.00;99.90;;;;;;5077431;28;20101;-77
2022/04/03 01:36:59;;;;;;;0.30;0.30;;;-0.90;99.90;;;;;;5109941;28;20036;-77
2022/04/03 01:39:26;;;;;;;0.30;0.30;;;-0.90;99.90;;;;;;5110197;28;20044;-77
2022/04/03 01:41:52;;;;;;;0.30;0.30;;;-0.90;99.90;;;;;;5109837;28;20039;-77
2022/04/03 01:44:20;;;;;;;0.40;0.40;;;-1.00;99.90;;;;;;5093461;28;20040;-77
2022/04/03 01:46:47;;;;;;;0.40;0.40;;;-0.90;99.90;;;;;;5076480;28;20420;-77
2022/04/03 01:49:17;;;;;;;0.30;0.30;;;-1.00;99.90;;;;;;5060425;28;20044;-77
2022/04/03 01:51:43;;;;;;;0.40;0.40;;;-1.00;99.90;;;;;;5076582;28;20093;-77
2022/04/03 01:54:10;;;;;;;0.40;0.40;;;-1.00;99.90;;;;;;5092594;28;20481;-77
2022/04/03 01:56:37;;;;;;;0.30;0.30;;;-1.10;99.90;;;;;;5109886;28;20409;-77
2022/04/03 01:59:04;;;;;;;0.38;0.38;;;-1.10;99.90;;;;;;5059797;28;20162;-77
2022/04/03 02:01:32;;;;;;;0.40;0.40;;;-1.00;99.90;;;;;;5092873;28;20048;-77
2022/04/03 02:04:00;;;;;;;0.40;0.40;;;-1.10;99.90;;;;;;5109420;28;20048;-77
2022/04/03 02:06:27;;;;;;;0.40;0.40;;;-1.20;99.90;;;;;;5109803;28;20052;-77
2022/04/03 02:08:54;;;;;;;0.38;0.38;;;-1.20;99.90;;;;;;5092528;28;20048;-77
2022/04/03 02:11:21;;;;;;;0.35;0.35;;;-1.20;99.90;;;;;;5076298;28;20104;-77
2022/04/03 02:13:47;;;;;;;0.40;0.40;;;-1.30;99.90;;;;;;5093177;28;20079;-77
2022/04/03 02:16:18;;;;;;;0.30;0.30;;;-1.30;99.90;;;;;;5092946;28;20503;-77
2022/04/03 02:18:44;;;;;;;0.35;0.35;;;-1.30;99.90;;;;;;5092710;28;20165;-77
2022/04/03 02:21:11;;;;;;;0.30;0.30;;;-1.30;99.90;;;;;;5075573;28;20139;-77
2022/04/03 02:23:38;;;;;;;0.20;0.20;;;-1.30;99.90;;;;;;5092710;28;20043;-77
2022/04/03 02:26:05;;;;;;;0.40;0.40;;;-1.20;99.90;;;;;;5075955;28;20047;-77
2022/04/03 02:28:31;;;;;;;0.30;0.30;;;-1.30;99.90;;;;;;5075808;28;20105;-77
2022/04/03 02:30:58;;;;;;;0.40;0.40;;;-1.30;99.90;;;;;;5092126;28;20076;-77
2022/04/03 02:33:25;;;;;;;0.40;0.40;;;-1.20;99.90;;;;;;5109280;28;20109;-77
2022/04/03 02:35:52;;;;;;;0.40;0.40;;;-1.10;99.90;;;;;;5108627;28;20054;-77
2022/04/03 02:38:18;;;;;;;0.40;0.40;;;-0.10;99.90;;;;;;5092415;28;20044;-77
2022/04/03 02:40:45;;;;;;;0.40;0.40;;;-1.00;99.90;;;;;;5109298;28;20150;-77
2022/04/03 02:43:12;;;;;;;0.40;0.40;;;-1.00;99.90;;;;;;5075571;28;20675;-77
2022/04/03 02:45:39;;;;;;;0.30;0.30;;;-1.00;99.90;;;;;;5075671;28;20051;-77
2022/04/03 02:48:06;;;;;;;0.40;0.40;;;-0.60;99.90;;;;;;5108367;28;20032;-77
2022/04/03 02:50:34;;;;;;;0.30;0.30;;;-0.90;99.90;;;;;;5075670;28;20043;-77
2022/04/03 02:53:00;;;;;;;0.40;0.40;;;-0.80;99.90;;;;;;5108871;28;20127;-77
2022/04/03 02:55:27;;;;;;;0.30;0.30;;;-0.70;99.90;;;;;;5092095;28;20119;-77
2022/04/03 02:57:54;;;;;;;0.35;0.35;;;-0.70;99.90;;;;;;5058886;28;20097;-77
2022/04/03 03:00:21;;;;;;;0.30;0.30;;;-0.60;99.90;;;;;;5108703;28;20050;-77
2022/04/03 03:02:51;;;;;;;0.35;0.35;;;-0.60;99.90;;;;;;5092091;28;20124;-77
2022/04/03 03:05:17;;;;;;;0.30;0.30;;;-0.50;99.90;;;;;;5108216;28;20623;-77
2022/04/03 03:07:49;;;;;;;0.30;0.30;;;-0.50;99.90;;;;;;5075304;28;20101;-77
2022/04/03 03:10:18;;;;;;;0.32;0.32;;;-0.40;99.90;;;;;;5092095;28;20044;-77
2022/04/03 03:12:46;;;;;;;0.30;0.30;;;-0.40;99.90;;;;;;5092245;28;20036;-77
2022/04/03 03:15:14;;;;;;;0.30;0.30;;;-0.40;99.90;;;;;;5091721;28;20562;-77
2022/04/03 03:17:41;;;;;;;0.30;0.30;;;-0.30;99.90;;;;;;5091853;28;20036;-77
2022/04/03 03:20:08;;;;;;;0.40;0.40;;;0.50;99.90;;;;;;5074950;28;20452;-77
2022/04/03 03:22:35;;;;;;;0.43;0.43;;;-0.20;99.90;;;;;;5108187;28;20056;-77
2022/04/03 03:25:05;;;;;;;0.30;0.30;;;0.60;99.90;;;;;;5075172;28;20052;-77
2022/04/03 03:27:35;;;;;;;0.40;0.40;;;-0.10;99.90;;;;;;5108362;28;20550;-77
2022/04/03 03:30:03;;;;;;;0.30;0.30;;;-0.10;99.90;;;;;;5075325;28;20040;-77
2022/04/03 03:32:30;;;;;;;0.38;0.38;;;0.00;99.90;;;;;;5108350;28;20552;-77
2022/04/03 03:34:57;;;;;;;0.40;0.40;;;0.00;99.90;;;;;;5074602;28;20131;-77
2022/04/03 03:37:24;;;;;;;0.30;0.30;;;0.00;99.90;;;;;;5091374;28;20036;-78
2022/04/03 03:39:50;;;;;;;0.30;0.30;;;0.10;99.90;;;;;;5075291;28;20078;-77
2022/04/03 03:42:17;;;;;;;0.30;0.30;;;0.10;99.90;;;;;;5074382;28;20040;-77
2022/04/03 03:44:44;;;;;;;0.40;0.40;;;0.10;99.90;;;;;;5114790;28;20040;-77
2022/04/03 03:47:11;;;;;;;0.30;0.30;;;0.10;99.90;;;;;;5067308;28;20127;-77
2022/04/03 03:49:38;;;;;;;0.20;0.20;;;0.20;99.90;;;;;;5095990;28;20479;-78
2022/04/03 03:52:05;;;;;;;0.30;0.30;;;0.80;99.90;;;;;;5067121;28;20072;-78
2022/04/03 03:54:32;;;;;;;0.30;0.30;;;0.30;99.90;;;;;;5097044;28;20036;-77
2022/04/03 03:56:59;;;;;;;0.45;0.45;;;0.30;99.90;;;;;;5057247;28;20071;-78
2022/04/03 03:59:26;;;;;;;0.30;0.30;;;0.80;99.90;;;;;;5063050;28;20055;-77
2022/04/03 04:01:53;;;;;;;0.30;0.30;;;0.30;99.90;;;;;;5084633;28;20067;-77
2022/04/03 04:04:20;;;;;;;0.30;0.30;;;0.40;99.90;;;;;;5071239;28;20051;-77
2022/04/03 04:06:48;;;;;;;0.30;0.30;;;0.40;99.90;;;;;;5071380;28;20036;-78
2022/04/03 04:09:15;;;;;;;0.30;0.30;;;0.40;99.90;;;;;;5054668;28;20041;-77
2022/04/03 04:11:42;;;;;;;0.20;0.20;;;0.40;99.90;;;;;;5071564;28;20063;-78
2022/04/03 04:14:08;;;;;;;0.30;0.30;;;0.40;99.90;;;;;;5038551;28;20056;-77
2022/04/03 04:16:35;;;;;;;0.30;0.30;;;0.50;99.90;;;;;;5071606;28;20093;-77
2022/04/03 04:19:02;;;;;;;0.30;0.30;;;0.40;99.90;;;;;;5091534;28;20041;-77
2022/04/03 04:21:28;;;;;;;0.30;0.30;;;0.50;99.90;;;;;;5034881;28;20061;-77
2022/04/03 04:23:55;;;;;;;0.30;0.30;;;0.50;99.90;;;;;;5051604;28;20053;-77
2022/04/03 04:26:25;;;;;;;0.30;0.30;;;0.50;99.90;;;;;;5068055;28;20041;-77
2022/04/03 04:28:52;;;;;;;0.30;0.30;;;0.50;99.90;;;;;;5051897;28;20060;-77
2022/04/03 04:31:19;;;;;;;0.30;0.30;;;0.50;99.90;;;;;;5034756;28;20037;-77
2022/04/03 04:33:46;;;;;;;0.30;0.30;;;1.20;99.90;;;;;;5051347;28;20387;-77
2022/04/03 04:36:13;;;;;;;0.30;0.30;;;0.60;99.90;;;;;;5067583;28;20060;-78
2022/04/03 04:38:39;;;;;;;0.30;0.30;;;0.60;99.90;;;;;;5067768;28;20033;-77
2022/04/03 04:41:06;;;;;;;0.25;0.25;;;0.60;99.90;;;;;;5051331;28;20045;-77
2022/04/03 04:43:33;;;;;;;0.30;0.30;;;0.70;99.90;;;;;;5068017;28;20045;-77
2022/04/03 04:46:00;;;;;;;0.30;0.30;;;0.60;99.90;;;;;;5051360;28;20453;-77
2022/04/03 04:48:27;;;;;;;0.30;0.30;;;0.60;99.90;;;;;;5067321;28;20048;-77
2022/04/03 04:50:53;;;;;;;0.20;0.20;;;0.60;99.90;;;;;;5051227;28;20033;-78
2022/04/03 04:53:20;;;;;;;0.25;0.25;;;0.60;99.90;;;;;;5050687;28;20099;-77
2022/04/03 04:55:47;;;;;;;0.30;0.30;;;0.60;99.90;;;;;;5034734;28;20490;-77
2022/04/03 04:58:13;;;;;;;0.30;0.30;;;0.60;99.90;;;;;;5067087;28;20390;-77
2022/04/03 05:00:40;;;;;;;0.20;0.20;;;0.60;99.90;;;;;;5034759;28;20478;-77
2022/04/03 05:03:07;;;;;;;0.30;0.30;;;0.60;99.90;;;;;;5050644;28;20152;-77
2022/04/03 05:05:35;;;;;;;0.30;0.30;;;0.60;99.90;;;;;;5066798;28;20047;-77
2022/04/03 05:08:02;;;;;;;0.30;0.30;;;0.90;99.90;;;;;;5050862;28;20084;-78
2022/04/03 05:10:31;;;;;;;0.25;0.25;;;0.70;99.90;;;;;;5050755;28;20045;-77
2022/04/03 05:12:58;;;;;;;0.28;0.28;;;0.60;99.90;;;;;;5067061;28;20402;-77
2022/04/03 05:15:27;;;;;;;0.30;0.30;;;0.60;99.90;;;;;;5049990;28;20034;-78
2022/04/03 05:17:54;;;;;;;0.20;0.20;;;0.60;99.90;;;;;;5083593;28;20115;-78
2022/04/03 05:20:21;;;;;;;0.30;0.30;;;0.60;99.90;;;;;;5050185;28;20037;-77
2022/04/03 05:22:48;;;;;;;0.30;0.30;;;0.60;99.90;;;;;;5066995;28;20064;-77
2022/04/03 05:25:14;;;;;;;0.30;0.30;;;0.50;99.90;;;;;;5050121;28;20379;-77
2022/04/03 05:27:44;;;;;;;0.30;0.30;;;0.60;99.90;;;;;;5017954;28;20045;-77
2022/04/03 05:30:12;;;;;;;0.30;0.30;;;0.60;99.90;;;;;;5050432;28;20041;-77
2022/04/03 05:32:39;;;;;;;0.30;0.30;;;0.60;99.90;;;;;;5034402;28;20034;-78
2022/04/03 05:35:07;;;;;;;0.22;0.22;;;0.60;99.90;;;;;;5050421;28;20753;-77
2022/04/03 05:37:36;;;;;;;0.30;0.30;;;0.60;99.90;;;;;;5033375;28;20045;-77
2022/04/03 05:40:04;;;;;;;0.30;0.30;;;0.60;99.90;;;;;;5050456;28;20044;-77
2022/04/03 05:42:33;;;;;;;0.30;0.30;;;0.70;99.90;;;;;;5033702;28;20053;-77
2022/04/03 05:45:00;;;;;;;0.30;0.30;;;0.70;99.90;;;;;;5034212;28;20041;-77
2022/04/03 05:47:27;;;;;;;0.30;0.30;;;1.10;99.90;;;;;;5017293;28;20041;-77
2022/04/03 05:49:53;;;;;;;0.20;0.20;;;0.70;99.90;;;;;;5050157;28;20041;-78
2022/04/03 05:52:20;;;;;;;0.28;0.28;;;0.70;99.90;;;;;;5017072;28;20390;-78
2022/04/03 05:54:47;;;;;;;0.30;0.30;;;0.80;99.90;;;;;;5050011;28;20041;-77
2022/04/03 05:57:14;;;;;;;0.30;0.30;;;0.80;99.90;;;;;;5049652;28;20037;-77
2022/04/03 05:59:40;;;;;;;0.30;0.30;;;0.90;99.90;;;;;;5033598;28;20049;-77
2022/04/03 06:02:07;;;;;;;0.22;0.22;;;0.90;99.90;;;;;;5033029;28;20054;-78
2022/04/03 06:04:34;;;;;;;0.25;0.25;;;0.90;99.90;;;;;;5033221;28;20041;-77
2022/04/03 06:07:01;;;;;;;0.20;0.20;;;0.90;99.90;;;;;;5033461;28;20560;-77
2022/04/03 06:09:28;;;;;;;0.30;0.30;;;1.00;99.90;;;;;;5033034;28;20088;-77
2022/04/03 06:11:55;;;;;;;0.20;0.20;;;0.90;99.90;;;;;;5033313;28;20490;-77
2022/04/03 06:14:21;;;;;;;0.30;0.30;;;0.90;99.90;;;;;;5049703;28;20088;-77
2022/04/03 06:16:48;;;;;;;0.30;0.30;;;0.90;99.90;;;;;;5033317;28;20478;-77
2022/04/03 06:19:15;;;;;;;0.20;0.20;;;0.90;99.90;;;;;;5049363;28;20394;-77
2022/04/03 06:21:41;;;;;;;0.30;0.30;;;0.90;99.90;;;;;;5059651;28;20060;-78
2022/04/03 06:24:08;;;;;;;0.28;0.28;;;0.90;99.90;;;;;;5089413;28;20048;-78
2022/04/03 06:26:35;;;;;;;0.30;0.30;;;1.00;99.90;;;;;;5072248;28;20101;-77
2022/04/03 06:29:02;;;;;;;0.30;0.30;;;0.90;99.90;;;;;;5056349;28;20102;-77
2022/04/03 06:31:31;;;;;;;0.20;0.20;;;0.90;99.90;;;;;;5088737;28;20516;-78
2022/04/03 06:33:58;;;;;;;0.30;0.30;;;0.90;99.90;;;;;;5056218;28;20066;-78
2022/04/03 06:36:25;;;;;;;0.30;0.30;;;0.90;99.90;;;;;;5039308;28;20481;-77
2022/04/03 06:38:51;;;;;;;0.30;0.30;;;0.90;99.90;;;;;;5072617;28;20046;-78
2022/04/03 06:41:18;;;;;;;0.20;0.20;;;0.90;99.90;;;;;;5087966;28;20382;-77
2022/04/03 06:43:47;;;;;;;0.30;0.30;;;0.90;99.90;;;;;;5089976;28;20040;-77
2022/04/03 06:46:15;;;;;;;0.20;0.20;;;0.90;99.90;;;;;;5069826;28;20046;-78
2022/04/03 06:48:42;;;;;;;0.30;0.30;;;1.80;99.90;;;;;;5108625;28;20066;-78
2022/04/03 06:51:08;;;;;;;0.30;0.30;;;1.00;99.90;;;;;;5092364;28;20481;-77
2022/04/03 06:53:35;;;;;;;0.20;0.20;;;1.10;99.90;;;;;;5075341;28;20044;-78
2022/04/03 06:56:02;;;;;;;0.30;0.30;;;1.10;99.90;;;;;;5108865;28;20877;-77
2022/04/03 06:58:28;;;;;;;0.30;0.30;;;1.10;99.90;;;;;;5091483;28;20444;-78
2022/04/03 07:00:55;;;;;;;0.20;0.20;;;1.10;99.90;;;;;;5086009;28;20093;-78
2022/04/03 07:03:22;;;;;;;0.25;0.25;;;1.40;99.90;;;;;;5093810;28;20083;-78
2022/04/03 07:05:49;;;;;;;0.30;0.30;;;1.30;99.90;;;;;;5088401;28;20136;-78
2022/04/03 07:08:16;;;;;;;0.30;0.30;;;1.30;99.90;;;;;;5072228;28;20045;-77
2022/04/03 07:10:43;;;;;;;0.20;0.20;;;1.40;99.90;;;;;;5059858;28;20033;-78
2022/04/03 07:13:10;;;;;;;0.30;0.30;;;1.40;99.90;;;;;;5088672;28;20028;-78
2022/04/03 07:15:37;;;;;;;0.30;0.30;;;1.50;99.90;;;;;;5081458;28;20489;-78
2022/04/03 07:18:04;;;;;;;0.20;0.20;;;1.60;99.90;;;;;;5095013;28;20128;-78
2022/04/03 07:20:31;;;;;;;0.40;0.40;;;1.70;99.90;;;;;;5088749;28;20515;-78
2022/04/03 07:22:58;;;;;;;0.20;0.20;;;1.90;99.90;;;;;;5062716;28;20056;-78
2022/04/03 07:25:24;;;;;;;0.22;0.22;;;2.10;99.90;;;;;;5073865;28;20776;-78
2022/04/03 07:27:51;;;;;;;0.30;0.30;;;2.20;99.90;;;;;;5079613;28;20040;-78
2022/04/03 07:30:18;;;;;;;0.25;0.25;;;3.20;99.90;;;;;;5093373;28;20039;-78
2022/04/03 07:32:45;;;;;;;0.20;0.20;;;2.60;99.90;;;;;;5068575;28;20028;-78
2022/04/03 07:35:12;;;;;;;0.20;0.20;;;3.00;99.90;;;;;;5107249;28;20036;-78
2022/04/03 07:37:39;;;;;;;0.20;0.20;;;3.00;99.90;;;;;;5094430;28;20071;-78
2022/04/03 07:40:08;;;;;;;0.20;0.20;;;3.20;99.90;;;;;;5074377;28;20780;-78
2022/04/03 07:42:35;;;;;;;0.20;0.20;;;3.30;99.90;;;;;;5071772;28;20048;-78
2022/04/03 07:45:04;;;;;;;0.20;0.20;;;3.50;99.90;;;;;;5078587;28;20055;-78
2022/04/03 07:47:31;;;;;;;0.20;0.20;;;3.60;99.90;;;;;;5084118;28;20036;-77
2022/04/03 07:49:59;;;;;;;0.20;0.20;;;3.60;99.90;;;;;;5086942;28;20044;-78
2022/04/03 07:52:25;;;;;;;0.20;0.20;;;3.70;99.90;;;;;;5101019;28;20047;-78
2022/04/03 07:54:52;;;;;;;0.20;0.20;;;3.80;99.90;;;;;;5094829;28;20035;-78
2022/04/03 07:57:19;;;;;;;0.20;0.20;;;4.50;99.90;;;;;;5095935;28;20403;-80
2022/04/03 07:59:46;;;;;;;0.20;0.20;;;3.80;99.90;;;;;;5084635;28;20044;-80
2022/04/03 08:02:13;;;;;;;0.22;0.22;;;3.90;99.90;;;;;;5078721;28;20040;-79
2022/04/03 08:04:40;;;;;;;0.20;0.20;;;4.00;99.90;;;;;;5078521;28;20557;-79
2022/04/03 08:07:07;;;;;;;0.20;0.20;;;4.10;99.90;;;;;;5095444;28;20048;-78
2022/04/03 08:09:34;;;;;;;0.20;0.20;;;4.10;99.90;;;;;;5105344;28;20036;-77
2022/04/03 08:12:00;;;;;;;0.20;0.20;;;5.00;99.90;;;;;;5102668;28;20072;-78
2022/04/03 08:14:27;;;;;;;0.20;0.20;;;4.10;99.90;;;;;;5073400;28;20032;-78
2022/04/03 08:16:54;;;;;;;0.20;0.20;;;4.20;99.90;;;;;;5100281;28;20050;-78
2022/04/03 08:19:21;;;;;;;0.20;0.20;;;4.30;99.90;;;;;;5077894;28;20039;-78
2022/04/03 08:21:48;;;;;;;0.10;0.10;;;4.50;99.90;;;;;;5101093;28;20105;-78
2022/04/03 08:24:14;;;;;;;0.10;0.10;;;4.50;99.90;;;;;;5081648;28;20086;-78
2022/04/03 08:26:42;;;;;;;0.20;0.20;;;5.10;99.90;;;;;;5075673;28;20044;-78
2022/04/03 08:29:08;;;;;;;0.20;0.20;;;4.40;99.90;;;;;;5077915;28;20048;-78
2022/04/03 08:31:35;;;;;;;0.20;0.20;;;4.40;99.90;;;;;;5110922;28;20036;-78
2022/04/03 08:34:02;;;;;;;0.20;0.20;;;4.60;99.90;;;;;;5111855;28;20047;-77
2022/04/03 08:36:29;;;;;;;0.20;0.20;;;4.40;99.90;;;;;;5078341;28;20048;-78
2022/04/03 08:38:56;;;;;;;0.20;0.20;;;4.50;99.90;;;;;;5094575;28;20105;-78
2022/04/03 08:41:23;;;;;;;0.10;0.10;;;4.90;99.90;;;;;;5111665;28;20094;-78
2022/04/03 08:43:49;;;;;;;0.20;0.20;;;4.70;99.90;;;;;;5074076;28;20640;-78
2022/04/03 08:46:17;;;;;;;0.10;0.10;;;4.90;99.90;;;;;;5061983;28;20131;-78
2022/04/03 08:48:47;;;;;;;0.20;0.20;;;5.00;99.90;;;;;;5073494;28;20093;-78
2022/04/03 08:51:14;;;;;;;0.20;0.20;;;5.30;99.90;;;;;;5111430;28;20085;-78
2022/04/03 08:53:46;;;;;;;0.10;0.10;;;5.10;99.90;;;;;;5127176;28;20079;-78
2022/04/03 08:56:12;;;;;;;0.10;0.10;;;5.10;99.90;;;;;;5105545;28;20459;-78
2022/04/03 08:58:39;;;;;;;0.10;0.10;;;5.40;99.90;;;;;;5100374;28;20039;-78
2022/04/03 09:01:07;;;;;;;0.10;0.10;;;5.70;99.90;;;;;;5062235;28;20040;-78
2022/04/03 09:03:33;;;;;;;0.20;0.20;;;5.90;99.90;;;;;;5084656;28;20050;-79
2022/04/03 09:06:19;;;;;;;0.10;0.10;;;6.10;99.90;;;;;;5111025;28;20126;-78
2022/04/03 09:08:47;;;;;;;0.20;0.20;;;6.30;99.90;;;;;;5107060;28;20507;-78
2022/04/03 09:11:14;;;;;;;0.17;0.17;;;6.70;99.90;;;;;;5110171;28;20044;-78
2022/04/03 09:13:42;;;;;;;0.10;0.10;;;6.80;99.90;;;;;;5102606;28;20412;-78
2022/04/03 09:16:10;;;;;;;0.20;0.20;;;6.80;99.90;;;;;;5102711;28;20500;-78
2022/04/03 09:18:48;;;;;;;0.10;0.10;;;6.70;99.90;;;;;;5092584;28;20096;-78
2022/04/03 09:21:26;;;;;;;0.10;0.10;;;6.90;99.90;;;;;;5090936;28;20047;-78
2022/04/03 09:24:07;;;;;;;0.10;0.10;;;6.50;99.90;;;;;;5089365;28;20057;-81
2022/04/03 09:26:35;;;;;;;0.10;0.10;;;6.50;99.90;;;;;;5067294;28;20049;-79
2022/04/03 09:29:17;;;;;;;0.10;0.10;;;6.70;99.90;;;;;;5060750;28;20470;-80
2022/04/03 09:31:46;;;;;;;0.10;0.10;;;6.70;99.90;;;;;;5057663;28;20207;-78
2022/04/03 09:34:20;;;;;;;0.10;0.10;;;6.30;99.90;;;;;;5050567;28;20048;-78
2022/04/03 09:36:57;;;;;;;0.10;0.10;;;6.20;99.90;;;;;;5067042;28;20045;-78
2022/04/03 09:39:27;;;;;;;0.10;0.10;;;6.30;99.90;;;;;;5059498;28;20044;-79
2022/04/03 09:41:54;;;;;;;0.10;0.10;;;5.80;99.90;;;;;;5057788;28;20380;-78
2022/04/03 09:44:45;;;;;;;0.10;0.10;;;5.70;99.90;;;;;;5072166;28;20124;-78
2022/04/03 09:47:32;;;;;;;0.20;0.20;;;5.70;99.90;;;;;;5064087;28;20048;-78
2022/04/03 09:50:06;;;;;;;0.10;0.10;;;5.90;99.90;;;;;;5044589;28;20041;-79
2022/04/03 09:52:47;;;;;;;0.10;0.10;;;6.20;99.90;;;;;;5052951;28;20047;-79
2022/04/03 09:55:15;;;;;;;0.20;0.20;;;6.60;99.90;;;;;;5077080;28;20401;-78
2022/04/03 09:57:43;;;;;;;0.30;0.30;;;6.80;99.90;;;;;;5083969;28;20091;-79
2022/04/03 10:00:11;;;;;;;0.10;0.10;;;7.00;99.90;;;;;;5064794;28;20048;-80
2022/04/03 10:02:38;;;;;;;0.10;0.10;;;6.90;99.90;;;;;;5073187;28;20043;-79
2022/04/03 10:05:06;;;;;;;0.10;0.10;;;7.10;99.90;;;;;;5069965;28;20120;-79
2022/04/03 10:07:35;;;;;;;0.10;0.10;;;7.20;99.90;;;;;;5054456;28;20045;-80
2022/04/03 10:10:02;;;;;;;0.10;0.10;;;7.60;99.90;;;;;;5081779;28;20048;-79
2022/04/03 10:12:29;;;;;;;0.10;0.10;;;7.80;99.90;;;;;;5072331;28;20046;-79
2022/04/03 10:14:55;;;;;;;0.10;0.10;;;7.50;99.90;;;;;;5078639;28;20059;-79
2022/04/03 10:17:22;;;;;;;0.10;0.10;;;7.20;99.90;;;;;;5039342;28;20048;-79
2022/04/03 10:19:51;;;;;;;0.10;0.10;;;7.20;99.90;;;;;;5052992;28;20045;-78
2022/04/03 10:22:27;;;;;;;0.10;0.10;;;7.30;99.90;;;;;;5078861;28;20081;-79
2022/04/03 10:24:57;;;;;;;0.10;0.10;;;7.70;99.90;;;;;;5070187;28;20053;-78
2022/04/03 10:27:29;;;;;;;0.10;0.10;;;7.70;99.90;;;;;;5079992;28;20650;-78
2022/04/03 10:29:58;;;;;;;0.10;0.10;;;7.60;99.20;;;;;;5054092;28;20041;-78
2022/04/03 10:32:30;;;;;;;0.10;0.10;;;7.60;98.60;;;;;;5044043;28;20034;-78
2022/04/03 10:34:59;;;;;;;0.10;0.10;;;7.70;99.90;;;;;;5068957;28;20051;-78
2022/04/03 10:37:37;;;;;;;0.10;0.10;;;8.00;99.90;;;;;;5068870;28;20854;-78
2022/04/03 10:40:07;;;;;;;0.10;0.10;;;8.00;99.90;;;;;;5067834;28;20179;-78
2022/04/03 10:42:58;;;;;;;0.10;0.10;;;7.90;99.90;;;;;;5069096;28;20044;-78
2022/04/03 10:45:34;;;;;;;0.10;0.10;;;7.80;99.90;;;;;;5068712;28;20044;-78
2022/04/03 10:48:19;;;;;;;;;;;7.80;99.90;;;;;;5085244;28;20079;-78
2022/04/03 10:51:05;;;;;;;0.10;0.10;;;7.80;99.90;;;;;;5098367;28;19916;-79
2022/04/03 10:53:40;;;;;;;0.10;0.10;;;7.70;99.90;;;;;;5068137;28;20590;-78
2022/04/03 10:56:22;;;;;;;0.10;0.10;;;7.50;99.90;;;;;;5085341;28;20080;-79
2022/04/03 10:58:51;;;;;;;0.10;0.10;;;7.40;99.90;;;;;;5067965;28;20041;-79
2022/04/03 11:01:32;;;;;;;0.10;0.10;;;7.40;99.90;;;;;;5068097;28;20098;-78
2022/04/03 11:04:00;;;;;;;0.10;0.10;;;7.60;99.90;;;;;;5084893;28;20052;-79
2022/04/03 11:06:32;;;;;;;0.10;0.10;;;7.50;99.90;;;;;;5085163;28;20063;-79
2022/04/03 11:09:08;;;;;;;0.10;0.10;;;7.40;99.90;;;;;;5084144;28;20095;-79
2022/04/03 11:11:48;;;;;;;0.10;0.10;;;7.40;99.90;;;;;;5068364;28;20037;-78
2022/04/03 11:14:52;;;;;;;0.10;0.10;;;7.60;99.90;;;;;;5068618;28;20094;-78
2022/04/03 11:17:39;;;;;;;0.10;0.10;;;7.80;99.90;;;;;;5065055;28;20529;-78
2022/04/03 11:20:07;;;;;;;0.10;0.10;;;7.80;99.90;;;;;;5070148;28;20510;-78
2022/04/03 11:22:35;;;;;;;0.10;0.10;;;7.70;99.90;;;;;;5090229;28;20099;-79
2022/04/03 11:25:03;;;;;;;0.08;0.08;;;7.50;99.90;;;;;;5054573;28;20596;-78
2022/04/03 11:27:30;;;;;;;0.10;0.10;;;7.70;99.90;;;;;;5104677;28;20099;-78
2022/04/03 11:29:58;;;;;;;0.10;0.10;;;8.10;99.90;;;;;;5087830;28;20409;-79
2022/04/03 11:32:26;;;;;;;0.10;0.10;;;8.30;99.90;;;;;;5101655;28;20115;-78
2022/04/03 11:34:58;;;;;;;0.10;0.10;;;8.60;99.90;;;;;;5072597;28;20166;-79
2022/04/03 11:37:25;;;;;;;0.10;0.10;;;8.70;99.90;;;;;;5105277;28;20040;-79
2022/04/03 11:39:53;;;;;;;0.10;0.10;;;8.40;99.90;;;;;;5055011;28;20482;-78
2022/04/03 11:42:23;;;;;;;0.10;0.10;;;8.10;99.90;;;;;;5105197;28;20525;-78
2022/04/03 11:44:54;;;;;;;0.10;0.10;;;8.00;99.90;;;;;;5101966;28;20056;-78
2022/04/03 11:47:25;;;;;;;0.10;0.10;;;8.30;99.90;;;;;;5063732;28;20044;-80
2022/04/03 11:50:05;;;;;;;0.10;0.10;;;8.50;99.90;;;;;;5079494;28;20048;-79
2022/04/03 11:52:35;;;;;;;0.10;0.10;;;8.60;99.90;;;;;;5083365;28;20431;-78
2022/04/03 11:55:07;;;;;;;0.10;0.10;;;8.80;99.90;;;;;;5088121;28;20044;-79
2022/04/03 11:57:33;;;;;;;0.00;0.00;;;8.90;99.90;;;;;;5068967;28;20610;-79
2022/04/03 12:00:00;;;;;;;0.10;0.10;;;9.00;99.90;;;;;;5077157;28;20036;-78
2022/04/03 12:02:27;;;;;;;0.10;0.10;;;9.00;99.90;;;;;;5058110;28;20044;-78
2022/04/03 12:04:59;;;;;;;0.10;0.10;;;9.10;99.90;;;;;;5064515;28;20087;-79
2022/04/03 12:07:29;;;;;;;0.20;0.20;;;8.80;98.90;;;;;;5085254;28;20045;-79
2022/04/03 12:09:56;;;;;;;0.10;0.10;;;8.90;98.80;;;;;;5074903;28;20037;-79
2022/04/03 12:12:24;;;;;;;0.10;0.10;;;8.80;97.80;;;;;;5063862;28;20401;-79
2022/04/03 12:14:51;;;;;;;0.10;0.10;;;8.80;97.90;;;;;;5084150;28;20029;-78
2022/04/03 12:17:19;;;;;;;0.10;0.10;;;8.60;96.90;;;;;;5067302;28;20388;-79
2022/04/03 12:19:47;;;;;;;0.00;0.00;;;8.40;97.90;;;;;;5095495;28;20134;-79
2022/04/03 12:22:18;;;;;;;0.10;0.10;;;8.60;97.80;;;;;;5084491;28;20056;-79
2022/04/03 12:24:47;;;;;;;0.10;0.10;;;8.50;97.70;;;;;;5098416;28;20055;-79
2022/04/03 12:27:14;;;;;;;0.10;0.10;;;8.50;98.50;;;;;;5074171;28;20463;-78
2022/04/03 12:29:44;;;;;;;0.10;0.10;;;8.50;98.20;;;;;;5071003;28;20072;-79
2022/04/03 12:32:13;;;;;;;0.10;0.10;;;8.50;99.10;;;;;;5098082;28;20047;-78
2022/04/03 12:34:48;;;;;;;0.10;0.10;;;8.60;99.30;;;;;;5090827;28;20043;-78
2022/04/03 12:37:16;;;;;;;0.10;0.10;;;8.70;98.60;;;;;;5075079;28;20477;-79
2022/04/03 12:39:50;;;;;;;0.10;0.10;;;8.70;96.00;;;;;;5110524;28;20036;-79
2022/04/03 12:42:37;;;;;;;0.00;0.00;;;8.70;93.30;;;;;;5111288;28;20079;-79
2022/04/03 12:45:14;;;;;;;0.10;0.10;;;8.70;92.10;;;;;;5110748;28;20504;-78
2022/04/03 12:47:58;;;;;;;0.00;0.00;;;8.80;94.40;;;;;;5087475;28;20488;-79
2022/04/03 12:50:34;;;;;;;0.10;0.10;;;8.80;91.90;;;;;;5108639;28;20074;-79
2022/04/03 12:53:03;;;;;;;0.10;0.10;;;8.90;92.10;;;;;;5082058;28;20036;-79
2022/04/03 12:55:41;;;;;;;0.10;0.10;;;9.10;90.80;;;;;;5085667;28;20126;-79
2022/04/03 12:58:32;;;;;;;0.10;0.10;;;9.20;92.10;;;;;;5084723;28;20043;-79
2022/04/03 13:01:16;;;;;;;0.10;0.10;;;9.10;90.90;;;;;;5108673;28;20051;-79
2022/04/03 13:03:44;;;;;;;0.10;0.10;;;9.20;89.00;;;;;;5093373;28;20044;-78